Terminal Aerodrome Forecast
Issued by NWS

Home | Current Version | Previous Version | Text Only | Print | Product List | Glossary On
Versions: 1 2 3 4 5 6 7 8 9 10 11 12 13 14 15
000
FTUS46 KMTR 022336
TAFSJC
TAF
KSJC 022336Z 0300/0324 31012KT P6SM SCT250
     FM030400 31005KT P6SM SKC
     FM030700 VRB03KT P6SM SCT015
      TEMPO 0312/0316 BKN015
     FM031700 31005KT P6SM FEW020 SCT250
     FM031800 31012KT P6SM FEW250=

USA.gov is the U.S. government's official web portal to all federal, state and local government web resources and services.